Time;durP1;ratioP1;P1;durP2;ratioP2;P2;SDS_P1;SDS_P2;PMS_P1;PMS_P2;Temp;Humidity;BMP_temperature;BMP_pressure;BME280_temperature;BME280_humidity;BME280_pressure;Samples;Min_cycle;Max_cycle;Signal;HPM_P1;HPM_P2
2023/10/28 00:00:52;;;;;;;825.85;567.15;;;25.60;99.90;;;;;;5067149;28;20025;-64
2023/10/28 00:03:20;;;;;;;837.08;566.15;;;25.70;99.90;;;;;;5067395;28;20731;-65
2023/10/28 00:05:48;;;;;;;828.35;565.88;;;25.70;99.90;;;;;;5069214;28;20033;-65
2023/10/28 00:08:15;;;;;;;808.63;563.33;;;25.70;99.90;;;;;;5071177;28;20025;-62
2023/10/28 00:10:42;;;;;;;805.20;556.20;;;25.80;99.90;;;;;;5071322;28;20048;-61
2023/10/28 00:13:09;;;;;;;814.20;563.40;;;25.90;99.90;;;;;;5067445;28;20042;-61
2023/10/28 00:15:36;;;;;;;843.80;578.78;;;26.00;99.90;;;;;;5068182;28;20048;-61
2023/10/28 00:18:03;;;;;;;914.60;628.38;;;26.00;99.90;;;;;;5070626;28;20024;-61
2023/10/28 00:20:30;;;;;;;849.75;583.33;;;26.10;99.90;;;;;;5063612;28;20024;-61
2023/10/28 00:23:00;;;;;;;895.22;603.88;;;26.20;99.90;;;;;;5076137;28;20040;-62
2023/10/28 00:25:31;;;;;;;844.60;581.55;;;26.20;99.90;;;;;;5068111;28;20041;-62
2023/10/28 00:27:58;;;;;;;982.53;666.25;;;26.20;99.90;;;;;;5067461;28;20121;-62
2023/10/28 00:30:26;;;;;;;862.80;590.67;;;26.30;99.90;;;;;;5068707;28;20491;-62
2023/10/28 00:32:54;;;;;;;870.33;606.95;;;26.40;99.90;;;;;;5067540;28;20016;-62
2023/10/28 00:35:21;;;;;;;845.35;582.47;;;26.40;99.90;;;;;;5066384;28;20028;-63
2023/10/28 00:37:49;;;;;;;860.42;587.40;;;26.50;99.90;;;;;;5064791;28;20275;-62
2023/10/28 00:40:17;;;;;;;834.65;583.00;;;26.60;99.90;;;;;;5067212;28;20031;-63
2023/10/28 00:42:45;;;;;;;849.60;580.70;;;26.60;99.90;;;;;;5068624;28;20091;-67
2023/10/28 00:45:16;;;;;;;833.80;577.67;;;26.70;99.90;;;;;;5067191;28;20103;-62
2023/10/28 00:47:45;;;;;;;835.08;585.15;;;26.70;99.90;;;;;;5073275;28;20150;-62
2023/10/28 00:50:14;;;;;;;853.28;583.90;;;26.80;99.90;;;;;;5066672;28;20358;-63
2023/10/28 00:52:44;;;;;;;839.78;585.15;;;26.80;99.90;;;;;;5063981;28;20370;-65
2023/10/28 00:55:12;;;;;;;836.28;577.58;;;26.90;99.90;;;;;;5065837;28;20078;-64
2023/10/28 00:57:41;;;;;;;809.92;566.28;;;27.00;99.90;;;;;;5062796;28;20013;-61
2023/10/28 01:00:09;;;;;;;835.65;579.63;;;27.20;99.90;;;;;;5066705;28;20078;-62
2023/10/28 01:02:38;;;;;;;869.55;593.90;;;27.20;99.90;;;;;;5065359;28;20458;-62
2023/10/28 01:05:11;;;;;;;813.95;570.17;;;27.20;99.90;;;;;;5068649;28;20028;-65
2023/10/28 01:07:41;;;;;;;838.50;588.58;;;27.30;99.90;;;;;;5068048;28;20021;-63
2023/10/28 01:10:09;;;;;;;820.70;570.53;;;27.40;99.90;;;;;;5067789;28;20084;-65
2023/10/28 01:12:37;;;;;;;792.55;555.95;;;27.50;99.90;;;;;;5067770;28;20159;-66
2023/10/28 01:15:05;;;;;;;768.60;546.45;;;27.60;99.90;;;;;;5067905;28;20075;-65
2023/10/28 01:17:32;;;;;;;774.75;548.33;;;27.70;99.90;;;;;;5068144;28;20017;-65
2023/10/28 01:19:59;;;;;;;719.63;510.17;;;27.70;99.90;;;;;;5068732;28;20036;-66
2023/10/28 01:22:26;;;;;;;701.10;499.23;;;27.80;99.90;;;;;;5065930;28;20021;-66
2023/10/28 01:24:54;;;;;;;680.78;486.33;;;27.90;99.90;;;;;;5063653;28;20048;-66
2023/10/28 01:27:20;;;;;;;624.63;444.55;;;28.00;99.90;;;;;;5064983;28;20017;-66
2023/10/28 01:29:47;;;;;;;529.03;369.00;;;28.10;99.90;;;;;;5066026;28;20013;-65
2023/10/28 01:32:17;;;;;;;519.15;361.48;;;28.20;99.90;;;;;;5065995;28;20465;-65
2023/10/28 01:34:51;;;;;;;523.60;357.05;;;28.30;99.90;;;;;;5065253;28;20033;-66
2023/10/28 01:37:19;;;;;;;459.67;305.10;;;28.40;99.90;;;;;;5066034;28;20070;-65
2023/10/28 01:39:50;;;;;;;457.77;304.65;;;28.50;99.90;;;;;;5065669;28;20021;-66
2023/10/28 01:42:17;;;;;;;438.70;302.98;;;28.60;99.90;;;;;;5064116;28;20025;-66
2023/10/28 01:44:45;;;;;;;419.05;275.08;;;28.70;99.90;;;;;;5064120;28;20028;-65
2023/10/28 01:47:13;;;;;;;398.52;266.88;;;28.80;99.90;;;;;;5065072;28;20017;-65
2023/10/28 01:49:40;;;;;;;395.55;255.82;;;28.80;99.90;;;;;;5062312;28;20036;-65
2023/10/28 01:52:08;;;;;;;361.13;238.77;;;28.90;99.90;;;;;;5066498;28;20516;-65
2023/10/28 01:54:36;;;;;;;313.23;209.93;;;29.00;99.90;;;;;;5065943;28;20479;-65
2023/10/28 01:57:06;;;;;;;282.73;194.55;;;29.10;99.90;;;;;;5064792;28;20035;-66
2023/10/28 01:59:34;;;;;;;279.52;182.48;;;29.20;99.90;;;;;;5063517;28;20025;-66
2023/10/28 02:02:02;;;;;;;247.77;158.23;;;29.30;99.90;;;;;;5064388;28;20025;-65
2023/10/28 02:04:32;;;;;;;272.65;181.25;;;29.40;99.90;;;;;;5065330;28;20035;-64
2023/10/28 02:07:00;;;;;;;262.00;173.60;;;29.50;99.90;;;;;;5063564;28;20428;-64
2023/10/28 02:09:29;;;;;;;272.48;177.00;;;29.60;99.90;;;;;;5063206;28;20070;-64
2023/10/28 02:11:55;;;;;;;233.40;151.20;;;29.70;99.90;;;;;;5072038;28;20024;-65
2023/10/28 02:14:24;;;;;;;194.75;126.80;;;29.80;99.90;;;;;;5065710;28;20028;-65
2023/10/28 02:16:51;;;;;;;178.95;123.63;;;29.80;99.90;;;;;;5064748;28;20499;-63
2023/10/28 02:19:20;;;;;;;181.63;125.97;;;29.90;99.90;;;;;;5063211;28;20024;-63
2023/10/28 02:21:48;;;;;;;189.68;125.85;;;29.90;99.90;;;;;;5065063;28;20103;-63
2023/10/28 02:24:19;;;;;;;163.48;112.45;;;30.00;99.90;;;;;;5063990;28;20127;-62
2023/10/28 02:26:46;;;;;;;236.07;166.70;;;30.00;99.90;;;;;;5065225;28;20024;-63
2023/10/28 02:29:13;;;;;;;217.23;142.45;;;30.00;99.90;;;;;;5063958;28;20175;-65
2023/10/28 02:31:40;;;;;;;178.38;121.82;;;30.20;99.90;;;;;;5062648;28;20055;-64
2023/10/28 02:34:07;;;;;;;139.35;92.30;;;30.30;99.90;;;;;;5064652;28;20107;-64
2023/10/28 02:36:34;;;;;;;125.20;86.72;;;30.50;99.90;;;;;;5063882;28;20127;-63
2023/10/28 02:39:01;;;;;;;128.43;89.47;;;30.50;99.90;;;;;;5062517;28;20167;-64
2023/10/28 02:41:28;;;;;;;140.63;94.13;;;30.40;99.90;;;;;;5064224;28;20030;-64
2023/10/28 02:43:54;;;;;;;138.52;95.78;;;30.40;99.90;;;;;;5063757;28;20441;-63
2023/10/28 02:46:22;;;;;;;208.88;167.50;;;30.40;99.90;;;;;;5062282;28;20028;-64
2023/10/28 02:48:49;;;;;;;162.60;115.18;;;30.40;99.90;;;;;;5063999;28;20012;-65
2023/10/28 02:51:16;;;;;;;155.15;106.55;;;30.60;99.90;;;;;;5063885;28;20071;-64
2023/10/28 02:53:43;;;;;;;155.35;109.22;;;30.60;99.90;;;;;;5062218;28;20444;-64
2023/10/28 02:56:09;;;;;;;169.90;117.88;;;30.70;99.90;;;;;;5065116;28;20534;-64
2023/10/28 02:58:38;;;;;;;163.27;111.10;;;30.80;99.90;;;;;;5073595;28;20036;-63
2023/10/28 03:01:11;;;;;;;157.90;104.88;;;30.80;99.90;;;;;;5073427;28;20484;-60
2023/10/28 03:03:38;;;;;;;140.70;99.78;;;30.80;99.90;;;;;;5073400;28;20035;-62
2023/10/28 03:06:06;;;;;;;108.20;78.60;;;30.90;99.90;;;;;;5073616;28;20028;-63
2023/10/28 03:08:33;;;;;;;108.30;76.75;;;31.00;99.90;;;;;;5073323;28;20031;-63
2023/10/28 03:11:00;;;;;;;111.13;77.45;;;31.20;99.90;;;;;;5073690;28;20112;-62
2023/10/28 03:13:27;;;;;;;110.07;74.75;;;31.20;99.90;;;;;;5073389;28;20048;-62
2023/10/28 03:15:53;;;;;;;104.05;72.38;;;31.20;99.90;;;;;;5073291;28;20032;-62
2023/10/28 03:18:20;;;;;;;97.30;69.90;;;31.40;99.90;;;;;;5072678;28;20536;-62
2023/10/28 03:20:47;;;;;;;103.68;75.15;;;31.50;99.90;;;;;;5073309;28;20033;-61
2023/10/28 03:23:14;;;;;;;105.10;76.70;;;31.60;99.90;;;;;;5073068;28;20492;-62
2023/10/28 03:25:41;;;;;;;109.45;75.57;;;31.60;99.90;;;;;;5073134;28;20484;-62
2023/10/28 03:28:08;;;;;;;120.80;84.32;;;31.60;99.90;;;;;;5073287;28;20040;-62
2023/10/28 03:30:35;;;;;;;122.85;83.82;;;31.70;99.90;;;;;;5073023;28;20111;-63
2023/10/28 03:33:02;;;;;;;122.57;86.85;;;31.70;99.90;;;;;;5073521;28;20426;-63
2023/10/28 03:35:28;;;;;;;136.60;92.18;;;31.70;99.90;;;;;;5073194;28;20029;-64
2023/10/28 03:37:55;;;;;;;131.80;89.85;;;31.80;99.90;;;;;;5072962;28;20388;-64
2023/10/28 03:40:22;;;;;;;130.63;90.80;;;31.90;99.90;;;;;;5073402;28;20055;-64
2023/10/28 03:42:48;;;;;;;141.77;93.70;;;32.00;99.90;;;;;;5073071;28;20012;-67
2023/10/28 03:45:16;;;;;;;146.77;98.63;;;31.90;99.90;;;;;;5072799;28;20465;-67
2023/10/28 03:47:43;;;;;;;148.32;97.43;;;31.90;99.90;;;;;;5072995;28;20035;-62
2023/10/28 03:50:10;;;;;;;141.48;97.05;;;31.90;99.90;;;;;;5073060;28;20028;-63
2023/10/28 03:52:36;;;;;;;137.07;94.80;;;31.90;99.90;;;;;;5072789;28;20031;-62
2023/10/28 03:55:03;;;;;;;140.45;94.13;;;31.90;99.90;;;;;;5071161;28;20392;-63
2023/10/28 03:57:30;;;;;;;153.15;102.05;;;31.80;99.90;;;;;;5073115;28;20048;-64
2023/10/28 03:59:58;;;;;;;146.43;97.30;;;31.90;99.90;;;;;;5070191;28;20028;-63
2023/10/28 04:02:28;;;;;;;154.23;103.28;;;32.00;99.90;;;;;;5071519;28;20056;-63
2023/10/28 04:04:56;;;;;;;150.00;99.53;;;32.10;99.90;;;;;;5069355;28;20028;-63
2023/10/28 04:07:23;;;;;;;142.77;95.45;;;32.20;99.90;;;;;;5064041;28;20025;-63
2023/10/28 04:09:49;;;;;;;152.35;101.97;;;32.20;99.90;;;;;;5061899;28;20073;-64
2023/10/28 04:12:16;;;;;;;156.05;109.15;;;32.20;99.90;;;;;;5063558;28;20020;-63
2023/10/28 04:14:43;;;;;;;157.60;106.60;;;32.30;99.90;;;;;;5064428;28;20029;-64
2023/10/28 04:17:09;;;;;;;154.48;100.00;;;32.30;99.90;;;;;;5061834;28;20025;-63
2023/10/28 04:19:37;;;;;;;149.05;99.13;;;32.30;99.90;;;;;;5063374;28;20028;-63
2023/10/28 04:22:03;;;;;;;164.65;108.82;;;32.40;99.90;;;;;;5061858;28;20074;-63
2023/10/28 04:24:30;;;;;;;165.05;106.43;;;32.40;99.90;;;;;;5061307;28;20051;-63
2023/10/28 04:26:57;;;;;;;154.23;98.85;;;32.50;99.90;;;;;;5053934;28;20024;-63
2023/10/28 04:29:24;;;;;;;153.45;99.18;;;32.50;99.90;;;;;;5055324;28;20021;-64
2023/10/28 04:31:50;;;;;;;146.00;97.35;;;32.70;99.90;;;;;;5058804;28;20066;-64
2023/10/28 04:34:17;;;;;;;148.32;101.45;;;32.80;99.90;;;;;;5069143;28;20025;-64
2023/10/28 04:36:44;;;;;;;152.25;105.25;;;32.80;99.90;;;;;;5072416;28;20037;-63
2023/10/28 04:39:10;;;;;;;151.65;104.47;;;32.80;99.90;;;;;;5067090;28;20392;-65
2023/10/28 04:41:37;;;;;;;146.10;99.43;;;32.90;99.90;;;;;;5067409;28;20105;-64
2023/10/28 04:44:04;;;;;;;147.75;103.95;;;32.80;99.90;;;;;;5065891;28;20032;-65
2023/10/28 04:46:31;;;;;;;149.10;101.72;;;32.90;99.90;;;;;;5066515;28;20092;-65
2023/10/28 04:48:58;;;;;;;148.35;102.18;;;33.00;99.90;;;;;;5064588;28;20494;-63
2023/10/28 04:51:25;;;;;;;152.80;102.63;;;33.00;99.90;;;;;;5065676;28;20378;-63
2023/10/28 04:53:52;;;;;;;151.68;99.47;;;32.90;99.90;;;;;;5066250;28;20040;-63
2023/10/28 04:56:19;;;;;;;164.40;108.65;;;32.90;99.90;;;;;;5064681;28;20159;-64
2023/10/28 04:58:46;;;;;;;160.18;106.07;;;32.80;99.90;;;;;;5065494;28;20107;-64
2023/10/28 05:01:12;;;;;;;152.48;101.43;;;32.90;99.90;;;;;;5066296;28;20042;-64
2023/10/28 05:03:39;;;;;;;141.38;99.22;;;33.00;99.90;;;;;;5068226;28;20366;-64
2023/10/28 05:06:09;;;;;;;133.30;92.10;;;33.10;99.90;;;;;;5070545;28;20055;-65
2023/10/28 05:08:37;;;;;;;138.55;93.88;;;33.10;99.90;;;;;;5064094;28;20013;-65
2023/10/28 05:11:04;;;;;;;144.30;99.25;;;33.10;99.90;;;;;;5065984;28;20027;-65
2023/10/28 05:13:31;;;;;;;164.05;111.40;;;33.30;99.90;;;;;;5064480;28;20438;-64
2023/10/28 05:15:58;;;;;;;145.77;103.72;;;33.40;99.90;;;;;;5065314;28;20543;-65
2023/10/28 05:18:26;;;;;;;163.52;109.97;;;33.60;99.90;;;;;;5064831;28;20481;-65
2023/10/28 05:20:53;;;;;;;151.07;103.70;;;33.50;99.90;;;;;;5066563;28;20025;-64
2023/10/28 05:23:20;;;;;;;144.43;96.75;;;33.60;99.90;;;;;;5066423;28;20036;-64
2023/10/28 05:25:46;;;;;;;146.63;97.63;;;33.60;99.90;;;;;;5064582;28;20041;-64
2023/10/28 05:28:13;;;;;;;133.63;95.05;;;33.70;99.90;;;;;;5066025;28;20477;-65
2023/10/28 05:30:40;;;;;;;133.77;89.45;;;33.70;99.90;;;;;;5062484;28;20029;-64
2023/10/28 05:33:06;;;;;;;119.47;83.20;;;33.70;99.90;;;;;;5056210;28;20070;-64
2023/10/28 05:35:33;;;;;;;124.25;83.95;;;33.90;99.90;;;;;;5055895;28;20032;-64
2023/10/28 05:38:00;;;;;;;129.88;84.65;;;34.00;99.90;;;;;;5055713;28;20033;-64
2023/10/28 05:40:26;;;;;;;117.65;82.30;;;34.10;99.40;;;;;;5055150;28;20044;-65
2023/10/28 05:42:54;;;;;;;126.93;85.25;;;34.10;99.60;;;;;;5055658;28;20013;-64
2023/10/28 05:45:21;;;;;;;125.38;85.63;;;34.10;99.80;;;;;;5055822;28;20465;-64
2023/10/28 05:47:48;;;;;;;120.45;82.95;;;34.20;99.90;;;;;;5056105;28;20100;-64
2023/10/28 05:50:17;;;;;;;131.88;83.35;;;34.20;98.90;;;;;;5055688;28;20017;-64
2023/10/28 05:52:43;;;;;;;114.95;81.47;;;34.20;99.90;;;;;;5055133;28;20082;-65
2023/10/28 05:55:12;;;;;;;128.02;86.13;;;34.20;99.50;;;;;;5055575;28;20017;-64
2023/10/28 05:57:40;;;;;;;118.97;81.07;;;34.30;99.00;;;;;;5055150;28;20033;-64
2023/10/28 06:00:10;;;;;;;121.70;82.93;;;34.20;98.80;;;;;;5055179;28;20033;-64
2023/10/28 06:02:39;;;;;;;132.50;86.38;;;34.30;99.70;;;;;;5055021;28;20024;-64
2023/10/28 06:05:08;;;;;;;130.18;84.00;;;34.40;99.40;;;;;;5054904;28;20021;-64
2023/10/28 06:07:35;;;;;;;126.07;85.65;;;34.40;99.60;;;;;;5061403;28;20077;-65
2023/10/28 06:10:04;;;;;;;123.03;85.70;;;34.40;98.50;;;;;;5071317;28;20018;-63
2023/10/28 06:12:31;;;;;;;140.55;94.28;;;34.30;98.30;;;;;;5064206;28;20029;-64
2023/10/28 06:14:58;;;;;;;133.90;92.43;;;34.30;98.40;;;;;;5055152;28;20437;-63
2023/10/28 06:17:24;;;;;;;136.40;91.28;;;34.30;98.50;;;;;;5054601;28;20397;-63
2023/10/28 06:19:51;;;;;;;142.27;91.05;;;34.40;98.70;;;;;;5054487;28;20055;-64
2023/10/28 06:22:18;;;;;;;134.10;91.38;;;34.30;98.00;;;;;;5066967;28;20107;-63
2023/10/28 06:24:45;;;;;;;138.07;93.32;;;34.30;98.30;;;;;;5074710;28;20044;-63
2023/10/28 06:27:11;;;;;;;134.27;92.45;;;34.30;98.80;;;;;;5074274;28;20142;-64
2023/10/28 06:29:38;;;;;;;135.27;90.45;;;34.40;98.50;;;;;;5074561;28;20024;-63
2023/10/28 06:32:06;;;;;;;149.50;99.10;;;34.40;98.20;;;;;;5074744;28;20027;-64
2023/10/28 06:34:33;;;;;;;138.02;92.85;;;34.40;98.10;;;;;;5074179;28;20028;-63
2023/10/28 06:37:00;;;;;;;134.98;88.53;;;34.50;98.40;;;;;;5074382;28;20032;-63
2023/10/28 06:39:27;;;;;;;146.32;96.93;;;34.50;98.70;;;;;;5074022;28;20032;-65
2023/10/28 06:41:54;;;;;;;142.73;95.10;;;34.60;98.20;;;;;;5075003;28;20037;-64
2023/10/28 06:44:22;;;;;;;144.70;98.22;;;34.60;98.20;;;;;;5075470;28;20024;-64
2023/10/28 06:46:49;;;;;;;142.15;95.75;;;34.50;98.20;;;;;;5075693;28;20025;-63
2023/10/28 06:49:16;;;;;;;149.02;100.00;;;34.50;98.20;;;;;;5076303;28;20094;-62
2023/10/28 06:51:43;;;;;;;144.93;100.97;;;34.50;98.40;;;;;;5075765;28;20594;-64
2023/10/28 06:54:10;;;;;;;149.07;100.05;;;34.60;98.40;;;;;;5076748;28;20494;-64
2023/10/28 06:56:37;;;;;;;146.02;95.85;;;34.50;98.20;;;;;;5076315;28;20032;-63
2023/10/28 06:59:04;;;;;;;149.25;99.35;;;34.50;98.00;;;;;;5076253;28;20032;-64
2023/10/28 07:01:32;;;;;;;152.05;97.63;;;34.40;98.20;;;;;;5076494;28;20108;-63
2023/10/28 07:03:58;;;;;;;159.73;97.70;;;34.30;99.00;;;;;;5076015;28;20056;-63
2023/10/28 07:06:25;;;;;;;155.27;98.60;;;34.20;99.70;;;;;;5075838;28;20103;-64
2023/10/28 07:08:52;;;;;;;157.40;102.55;;;34.20;99.90;;;;;;5061479;28;20028;-63
2023/10/28 07:11:18;;;;;;;158.25;103.07;;;34.00;99.90;;;;;;5053896;28;20104;-64
2023/10/28 07:13:46;;;;;;;159.32;106.43;;;34.00;99.90;;;;;;5053855;28;20025;-65
2023/10/28 07:16:12;;;;;;;160.07;105.03;;;33.90;99.90;;;;;;5064469;28;20025;-65
2023/10/28 07:18:40;;;;;;;147.57;100.57;;;33.80;99.90;;;;;;5053433;28;20037;-64
2023/10/28 07:21:07;;;;;;;143.20;102.40;;;33.80;99.90;;;;;;5053367;28;20443;-64
2023/10/28 07:23:33;;;;;;;153.50;103.55;;;33.80;99.90;;;;;;5053189;28;20112;-64
2023/10/28 07:26:01;;;;;;;147.00;102.07;;;33.90;99.90;;;;;;5053254;28;20052;-64
2023/10/28 07:28:34;;;;;;;150.50;103.95;;;33.90;99.90;;;;;;5053458;28;20477;-65
2023/10/28 07:31:02;;;;;;;147.38;100.90;;;33.90;99.90;;;;;;5053406;28;20078;-64
2023/10/28 07:33:28;;;;;;;141.68;98.85;;;33.90;99.90;;;;;;5054010;28;20021;-65
2023/10/28 07:35:55;;;;;;;135.13;95.30;;;33.90;99.90;;;;;;5053550;28;20132;-64
2023/10/28 07:38:22;;;;;;;138.98;97.32;;;33.90;99.90;;;;;;5053376;28;20028;-64
2023/10/28 07:40:50;;;;;;;136.95;95.40;;;33.90;99.90;;;;;;5053033;28;20036;-64
2023/10/28 07:43:17;;;;;;;131.00;92.63;;;33.90;99.90;;;;;;5052923;28;20033;-64
2023/10/28 07:45:47;;;;;;;126.43;87.60;;;33.90;99.90;;;;;;5053302;28;20071;-64
2023/10/28 07:48:14;;;;;;;139.02;96.75;;;33.90;99.90;;;;;;5052911;28;20025;-65
2023/10/28 07:50:42;;;;;;;143.25;97.43;;;34.00;99.90;;;;;;5053055;28;20018;-65
2023/10/28 07:53:10;;;;;;;137.90;97.85;;;33.90;99.90;;;;;;5053298;28;20465;-64
2023/10/28 07:55:38;;;;;;;133.85;92.03;;;33.90;99.90;;;;;;5053144;28;20030;-65
2023/10/28 07:58:05;;;;;;;128.15;92.28;;;34.00;99.90;;;;;;5053101;28;20040;-65
2023/10/28 08:00:32;;;;;;;133.13;93.25;;;33.90;99.90;;;;;;5052856;28;20025;-65
2023/10/28 08:03:00;;;;;;;124.47;89.72;;;34.00;99.90;;;;;;5052614;28;20036;-64
2023/10/28 08:05:28;;;;;;;139.23;96.57;;;34.00;99.90;;;;;;5056631;28;20025;-66
2023/10/28 08:07:54;;;;;;;131.68;95.68;;;34.10;99.90;;;;;;5056879;28;20465;-66
2023/10/28 08:10:22;;;;;;;126.18;89.10;;;34.10;99.80;;;;;;5072072;28;20039;-65
2023/10/28 08:12:52;;;;;;;107.90;76.65;;;34.10;99.50;;;;;;5071521;28;20025;-66
2023/10/28 08:15:21;;;;;;;104.43;70.35;;;34.10;98.80;;;;;;5076679;28;20033;-66
2023/10/28 08:17:47;;;;;;;102.32;70.80;;;34.20;98.00;;;;;;5076614;28;20074;-66
2023/10/28 08:20:15;;;;;;;99.80;70.53;;;34.20;97.80;;;;;;5076586;28;20031;-65
2023/10/28 08:22:43;;;;;;;106.03;70.30;;;34.20;97.30;;;;;;5076466;28;20029;-66
2023/10/28 08:25:11;;;;;;;100.55;68.43;;;34.20;97.80;;;;;;5076037;28;20040;-66
2023/10/28 08:27:38;;;;;;;99.88;70.40;;;34.20;97.70;;;;;;5076406;28;20048;-65
2023/10/28 08:30:05;;;;;;;101.68;71.90;;;34.30;97.90;;;;;;5076343;28;20029;-66
2023/10/28 08:32:32;;;;;;;95.00;69.18;;;34.30;98.00;;;;;;5076112;28;20021;-66
2023/10/28 08:35:00;;;;;;;90.45;65.45;;;34.40;97.80;;;;;;5076326;28;20035;-66
2023/10/28 08:37:26;;;;;;;97.85;67.72;;;34.40;97.60;;;;;;5076225;28;20378;-66
2023/10/28 08:39:53;;;;;;;107.72;72.93;;;34.40;97.70;;;;;;5075994;28;20099;-67
2023/10/28 08:42:21;;;;;;;96.55;65.05;;;34.50;97.90;;;;;;5076067;28;20097;-66
2023/10/28 08:44:48;;;;;;;85.13;62.15;;;34.50;97.60;;;;;;5076567;28;20035;-66
2023/10/28 08:47:21;;;;;;;84.90;61.05;;;34.50;97.40;;;;;;5076580;28;20035;-66
2023/10/28 08:49:51;;;;;;;77.47;55.78;;;34.40;97.10;;;;;;5076129;28;20027;-66
2023/10/28 08:52:21;;;;;;;74.32;54.17;;;34.40;97.20;;;;;;5075904;28;20021;-66
2023/10/28 08:54:49;;;;;;;77.13;53.03;;;34.50;97.40;;;;;;5075418;28;20029;-64
2023/10/28 08:57:17;;;;;;;74.72;52.83;;;34.40;97.00;;;;;;5075808;28;20033;-66
2023/10/28 08:59:44;;;;;;;81.63;57.17;;;34.40;97.20;;;;;;5075884;28;20024;-65
2023/10/28 09:02:12;;;;;;;73.22;54.88;;;34.40;97.30;;;;;;5075923;28;20024;-65
2023/10/28 09:04:39;;;;;;;70.15;50.50;;;34.40;97.60;;;;;;5075893;28;20082;-65
2023/10/28 09:07:07;;;;;;;62.25;46.95;;;34.40;97.30;;;;;;5075827;28;20100;-65
2023/10/28 09:09:37;;;;;;;67.07;49.88;;;34.40;96.70;;;;;;5075940;28;20024;-66
2023/10/28 09:12:07;;;;;;;77.47;51.58;;;34.30;96.80;;;;;;5075981;28;20016;-66
2023/10/28 09:14:34;;;;;;;72.47;52.08;;;34.40;97.10;;;;;;5075270;28;20086;-66
2023/10/28 09:17:02;;;;;;;76.88;55.15;;;34.30;97.10;;;;;;5074674;28;20366;-66
2023/10/28 09:19:30;;;;;;;140.63;94.28;;;34.30;97.10;;;;;;5075635;28;20056;-66
2023/10/28 09:21:58;;;;;;;125.00;83.47;;;34.20;97.80;;;;;;5075496;28;20104;-66
2023/10/28 09:24:25;;;;;;;116.90;74.75;;;33.90;99.90;;;;;;5075283;28;20117;-66
2023/10/28 09:26:52;;;;;;;120.57;70.55;;;33.50;99.90;;;;;;5075340;28;20417;-66
2023/10/28 09:29:30;;;;;;;136.93;83.75;;;33.00;99.90;;;;;;5075250;28;20055;-64
2023/10/28 09:32:08;;;;;;;149.93;100.47;;;31.90;99.90;;;;;;5075380;28;20358;-65
2023/10/28 09:34:38;;;;;;;142.95;95.82;;;30.90;99.90;;;;;;5075153;28;20028;-65
2023/10/28 09:37:09;;;;;;;151.70;106.47;;;30.50;99.90;;;;;;5075231;28;20557;-65
2023/10/28 09:39:36;;;;;;;137.52;98.50;;;30.30;99.90;;;;;;5075336;28;20039;-65
2023/10/28 09:42:04;;;;;;;127.07;94.20;;;30.40;99.90;;;;;;5075063;28;20029;-65
2023/10/28 09:44:34;;;;;;;106.68;74.68;;;30.50;99.90;;;;;;5075214;28;20035;-65
2023/10/28 09:47:05;;;;;;;102.60;72.95;;;30.50;99.90;;;;;;5075066;28;20484;-64
2023/10/28 09:49:34;;;;;;;101.57;76.07;;;30.50;99.90;;;;;;5071105;28;20158;-65
2023/10/28 09:52:07;;;;;;;107.13;76.15;;;30.50;99.90;;;;;;5070741;28;20033;-63
2023/10/28 09:54:36;;;;;;;101.32;73.15;;;30.50;99.90;;;;;;5054842;28;20033;-64
2023/10/28 09:57:04;;;;;;;92.05;66.60;;;30.50;99.90;;;;;;5065000;28;20113;-64
2023/10/28 09:59:35;;;;;;;86.72;64.53;;;30.40;99.90;;;;;;5074952;28;20056;-65
2023/10/28 10:02:39;;;;;;;81.32;61.45;;;30.50;99.90;;;;;;5074681;28;20110;-64
2023/10/28 10:05:17;;;;;;;82.25;62.03;;;30.60;99.90;;;;;;5074281;28;20404;-64
2023/10/28 10:07:45;;;;;;;80.95;63.95;;;30.60;99.90;;;;;;5074477;28;20078;-64
2023/10/28 10:10:15;;;;;;;93.53;68.65;;;30.60;99.90;;;;;;5074827;28;20025;-63
2023/10/28 10:12:43;;;;;;;98.60;71.15;;;30.60;99.90;;;;;;5074095;28;20063;-64
2023/10/28 10:15:13;;;;;;;100.88;74.78;;;30.60;99.90;;;;;;5074507;28;20025;-64
2023/10/28 10:18:00;;;;;;;109.15;80.70;;;30.70;99.90;;;;;;5074336;28;20032;-64
2023/10/28 10:20:28;;;;;;;125.35;90.75;;;30.60;99.90;;;;;;5074619;28;20468;-63
2023/10/28 10:23:00;;;;;;;123.68;92.32;;;30.70;99.90;;;;;;5074268;28;20111;-64
2023/10/28 10:25:40;;;;;;;126.63;93.80;;;30.70;99.90;;;;;;5074108;28;20052;-64
2023/10/28 10:28:18;;;;;;;127.15;97.38;;;30.70;99.90;;;;;;5074001;28;20017;-64
2023/10/28 10:30:45;;;;;;;128.93;95.22;;;30.60;99.90;;;;;;5074215;28;20484;-64
2023/10/28 10:33:12;;;;;;;129.10;97.55;;;30.50;99.90;;;;;;5074162;28;20028;-64
2023/10/28 10:35:46;;;;;;;127.72;95.70;;;30.60;99.90;;;;;;5074016;28;20028;-64
2023/10/28 10:38:13;;;;;;;126.15;96.97;;;30.60;99.90;;;;;;5074097;28;20020;-64
2023/10/28 10:40:50;;;;;;;124.55;93.88;;;30.60;99.90;;;;;;5074014;28;20032;-64
2023/10/28 10:43:20;;;;;;;127.55;93.75;;;30.60;99.90;;;;;;5073840;28;20025;-65
2023/10/28 10:45:48;;;;;;;124.90;94.47;;;30.50;99.90;;;;;;5067588;28;20032;-64
2023/10/28 10:48:16;;;;;;;124.55;89.97;;;30.50;99.90;;;;;;5059691;28;20028;-63
2023/10/28 10:50:45;;;;;;;125.30;91.07;;;30.50;99.90;;;;;;5054044;28;20122;-64
2023/10/28 10:53:12;;;;;;;121.00;90.47;;;30.50;99.90;;;;;;5053771;28;20056;-64
2023/10/28 10:55:40;;;;;;;135.48;93.78;;;30.50;99.90;;;;;;5053646;28;20127;-61
2023/10/28 10:58:07;;;;;;;137.73;100.25;;;30.40;99.90;;;;;;5053830;28;20053;-62
2023/10/28 11:00:34;;;;;;;166.05;112.43;;;30.50;99.90;;;;;;5053737;28;20095;-62
2023/10/28 11:03:03;;;;;;;160.43;111.75;;;30.40;99.90;;;;;;5053821;28;20457;-62
2023/10/28 11:05:32;;;;;;;179.18;116.70;;;30.40;99.90;;;;;;5053537;28;20068;-62
2023/10/28 11:07:59;;;;;;;163.65;107.53;;;30.30;99.90;;;;;;5053816;28;20083;-62
2023/10/28 11:10:26;;;;;;;153.23;101.82;;;30.30;99.90;;;;;;5053398;28;20029;-62
2023/10/28 11:12:53;;;;;;;143.35;98.30;;;30.30;99.90;;;;;;5053498;28;20033;-62
2023/10/28 11:15:23;;;;;;;141.50;92.95;;;30.10;99.90;;;;;;5053919;28;20021;-62
2023/10/28 11:17:50;;;;;;;155.07;99.05;;;30.10;99.90;;;;;;5053492;28;20063;-62
2023/10/28 11:20:20;;;;;;;161.43;101.88;;;30.00;99.90;;;;;;5053521;28;20039;-62
2023/10/28 11:22:48;;;;;;;135.57;91.72;;;30.00;99.90;;;;;;5053336;28;20532;-62
2023/10/28 11:25:15;;;;;;;136.00;93.82;;;30.00;99.90;;;;;;5053028;28;20079;-62
2023/10/28 11:27:42;;;;;;;140.88;92.78;;;30.00;99.90;;;;;;5053314;28;20025;-62
2023/10/28 11:30:10;;;;;;;155.05;97.47;;;30.00;99.90;;;;;;5053248;28;20020;-62
2023/10/28 11:32:41;;;;;;;154.35;109.30;;;30.00;99.90;;;;;;5053320;28;20420;-62
2023/10/28 11:35:11;;;;;;;150.30;103.63;;;30.00;99.90;;;;;;5053719;28;20025;-61
2023/10/28 11:37:39;;;;;;;145.70;98.70;;;30.00;99.90;;;;;;5056359;28;20025;-62
2023/10/28 11:40:07;;;;;;;149.90;100.07;;;30.00;99.90;;;;;;5072552;28;20044;-62
2023/10/28 11:42:37;;;;;;;142.38;95.47;;;30.00;99.90;;;;;;5073054;28;20029;-61
2023/10/28 11:45:06;;;;;;;145.82;94.75;;;30.00;99.90;;;;;;5072756;28;20543;-62
2023/10/28 11:47:33;;;;;;;142.50;93.50;;;30.00;99.90;;;;;;5073139;28;20032;-62
2023/10/28 11:50:00;;;;;;;138.73;90.63;;;29.90;99.90;;;;;;5073196;28;20029;-62
2023/10/28 11:52:27;;;;;;;143.48;92.50;;;29.90;99.90;;;;;;5073097;28;20021;-61
2023/10/28 11:54:54;;;;;;;142.50;92.40;;;29.90;99.90;;;;;;5071052;28;20477;-61
2023/10/28 11:57:20;;;;;;;136.60;91.70;;;29.90;99.90;;;;;;5055577;28;20041;-62
2023/10/28 11:59:47;;;;;;;138.70;95.18;;;29.80;99.90;;;;;;5053013;28;20029;-61
2023/10/28 12:02:14;;;;;;;151.30;96.72;;;29.80;99.90;;;;;;5064646;28;20012;-61
2023/10/28 12:04:41;;;;;;;146.55;96.93;;;29.80;99.90;;;;;;5068777;28;20027;-62
2023/10/28 12:07:09;;;;;;;148.85;98.65;;;29.80;99.90;;;;;;5069105;28;20448;-63
2023/10/28 12:09:37;;;;;;;152.50;96.53;;;29.80;99.90;;;;;;5069127;28;20028;-63
2023/10/28 12:12:06;;;;;;;142.02;97.70;;;29.80;99.90;;;;;;5064076;28;20043;-60
2023/10/28 12:14:33;;;;;;;139.63;95.03;;;29.80;99.90;;;;;;5062785;28;20443;-61
2023/10/28 12:17:00;;;;;;;145.68;93.75;;;29.80;99.90;;;;;;5063489;28;20027;-60
2023/10/28 12:19:26;;;;;;;144.25;95.40;;;29.70;99.90;;;;;;5062382;28;20484;-61